Time,TemperatureF,DewpointF,PressureIn,WindDirection,WindDirectionDegrees,WindSpeedMPH,WindSpeedGustMPH,Humidity,HourlyPrecipIn,Conditions,Clouds,dailyrainin,SolarRadiationWatts/m^2,SoftwareType,DateUTC
2013-02-27 00:12:00,44.9,43.0,30.23,NNE,19,0.0,1.0,91,0.00,,,0.00,0,weatherlink.com 1.10,2013-02-27 08:12:00,
2013-02-27 00:27:00,45.0,43.0,30.23,NNE,19,0.0,2.0,92,0.00,,,0.00,0,weatherlink.com 1.10,2013-02-27 08:27:00,
2013-02-27 00:42:00,44.9,43.0,30.24,NNE,19,2.0,3.0,93,0.00,,,0.00,0,weatherlink.com 1.10,2013-02-27 08:42:00,
2013-02-27 00:57:00,45.6,44.0,30.24,NNE,19,3.0,6.0,94,0.00,,,0.00,0,weatherlink.com 1.10,2013-02-27 08:57:00,
2013-02-27 01:12:00,46.5,45.0,30.24,NNE,22,5.0,8.0,94,0.00,,,0.00,0,weatherlink.com 1.10,2013-02-27 09:12:00,
2013-02-27 01:27:00,46.6,45.0,30.24,NNE,22,3.0,6.0,93,0.00,,,0.00,0,weatherlink.com 1.10,2013-02-27 09:27:00,
2013-02-27 01:42:00,46.4,45.0,30.25,NNE,22,0.0,4.0,93,0.00,,,0.00,0,weatherlink.com 1.10,2013-02-27 09:42:00,
2013-02-27 01:57:00,45.9,44.0,30.25,NNE,22,0.0,2.0,93,0.00,,,0.00,0,weatherlink.com 1.10,2013-02-27 09:57:00,
2013-02-27 02:12:00,45.4,44.0,30.25,NNE,22,0.0,2.0,93,0.00,,,0.00,0,weatherlink.com 1.10,2013-02-27 10:12:00,
2013-02-27 02:27:00,45.4,44.0,30.25,NNE,22,0.0,3.0,93,0.00,,,0.00,0,weatherlink.com 1.10,2013-02-27 10:27:00,
2013-02-27 02:43:00,45.4,44.0,30.24,NNE,22,0.0,1.0,93,0.00,,,0.00,0,weatherlink.com 1.10,2013-02-27 10:43:00,
2013-02-27 02:57:00,44.8,43.0,30.25,NNE,22,0.0,0.0,92,0.00,,,0.00,0,weatherlink.com 1.10,2013-02-27 10:57:00,
2013-02-27 03:28:00,43.9,42.0,30.25,NNE,22,1.0,2.0,91,0.00,,,0.00,0,weatherlink.com 1.10,2013-02-27 11:28:00,
2013-02-27 03:58:00,44.5,43.0,30.26,North,9,11.0,13.0,93,0.00,,,0.00,0,weatherlink.com 1.10,2013-02-27 11:58:00,
2013-02-27 04:13:00,45.0,43.0,30.27,NNW,342,6.0,15.0,92,0.00,,,0.00,0,weatherlink.com 1.10,2013-02-27 12:13:00,
2013-02-27 04:28:00,45.1,43.0,30.27,NNE,12,2.0,5.0,91,0.00,,,0.00,0,weatherlink.com 1.10,2013-02-27 12:28:00,
2013-02-27 04:43:00,45.1,43.0,30.27,NNE,22,5.0,8.0,91,0.00,,,0.00,0,weatherlink.com 1.10,2013-02-27 12:43:00,
2013-02-27 04:58:00,45.3,42.0,30.27,NNE,13,9.0,13.0,89,0.00,,,0.00,0,weatherlink.com 1.10,2013-02-27 12:58:00,
2013-02-27 05:13:00,45.8,43.0,30.27,NNE,22,4.0,14.0,89,0.00,,,0.00,0,weatherlink.com 1.10,2013-02-27 13:13:00,
2013-02-27 05:28:00,46.0,43.0,30.28,NNE,15,10.0,13.0,88,0.00,,,0.00,0,weatherlink.com 1.10,2013-02-27 13:28:00,
2013-02-27 05:43:00,46.1,43.0,30.28,NNE,31,7.0,10.0,87,0.00,,,0.00,0,weatherlink.com 1.10,2013-02-27 13:43:00,
2013-02-27 05:58:00,45.6,41.0,30.28,ESE,121,2.0,13.0,84,0.00,,,0.00,0,weatherlink.com 1.10,2013-02-27 13:58:00,
2013-02-27 06:13:00,45.5,41.0,30.28,ESE,121,0.0,3.0,83,0.00,,,0.00,0,weatherlink.com 1.10,2013-02-27 14:13:00,
2013-02-27 06:28:00,44.9,40.0,30.27,ENE,75,4.0,5.0,82,0.00,,,0.00,0,weatherlink.com 1.10,2013-02-27 14:28:00,
2013-02-27 06:43:00,44.7,40.0,30.27,NNE,33,0.0,3.0,82,0.00,,,0.00,5,weatherlink.com 1.10,2013-02-27 14:43:00,
2013-02-27 06:58:00,44.6,39.0,30.27,NNE,33,0.0,2.0,82,0.00,,,0.00,14,weatherlink.com 1.10,2013-02-27 14:58:00,
2013-02-27 07:13:00,44.9,40.0,30.28,NNE,33,0.0,1.0,82,0.00,,,0.00,28,weatherlink.com 1.10,2013-02-27 15:13:00,
2013-02-27 07:28:00,45.7,40.0,30.28,NNE,33,0.0,0.0,80,0.00,,,0.00,35,weatherlink.com 1.10,2013-02-27 15:28:00,
2013-02-27 07:59:00,49.2,44.0,30.33,North,360,2.0,5.0,83,0.00,,,0.00,204,weatherlink.com 1.10,2013-02-27 15:59:00,
2013-02-27 08:14:00,51.5,45.0,30.33,NNE,29,1.0,8.0,79,0.00,,,0.00,253,weatherlink.com 1.10,2013-02-27 16:14:00,
2013-02-27 08:29:00,53.2,45.0,30.33,NNE,28,0.0,5.0,73,0.00,,,0.00,308,weatherlink.com 1.10,2013-02-27 16:29:00,
2013-02-27 08:44:00,55.2,45.0,30.34,NNW,345,0.0,4.0,69,0.00,,,0.00,318,weatherlink.com 1.10,2013-02-27 16:44:00,
2013-02-27 08:59:00,56.7,45.0,30.34,NNW,345,2.0,4.0,65,0.00,,,0.00,432,weatherlink.com 1.10,2013-02-27 16:59:00,
2013-02-27 09:14:00,57.1,43.0,30.35,NNE,18,2.0,8.0,60,0.00,,,0.00,496,weatherlink.com 1.10,2013-02-27 17:14:00,
2013-02-27 09:29:00,54.7,41.0,30.34,NNW,339,4.0,13.0,60,0.00,,,0.00,501,weatherlink.com 1.10,2013-02-27 17:29:00,
2013-02-27 09:45:00,53.6,39.0,30.34,NNE,19,11.0,18.0,59,0.00,,,0.00,570,weatherlink.com 1.10,2013-02-27 17:45:00,
2013-02-27 10:00:00,54.2,41.0,30.34,NNE,20,11.0,15.0,62,0.00,,,0.00,543,weatherlink.com 1.10,2013-02-27 18:00:00,
2013-02-27 10:15:00,55.2,41.0,30.35,NNE,22,7.0,12.0,59,0.00,,,0.00,517,weatherlink.com 1.10,2013-02-27 18:15:00,
2013-02-27 10:45:00,55.9,41.0,30.34,NE,34,10.0,14.0,58,0.00,,,0.00,673,weatherlink.com 1.10,2013-02-27 18:45:00,
2013-02-27 11:00:00,56.8,41.0,30.34,NNE,31,4.0,17.0,57,0.00,,,0.00,617,weatherlink.com 1.10,2013-02-27 19:00:00,
2013-02-27 11:15:00,58.4,43.0,30.34,NNE,13,1.0,11.0,57,0.00,,,0.00,751,weatherlink.com 1.10,2013-02-27 19:15:00,
2013-02-27 11:30:00,59.0,42.0,30.34,NNE,15,7.0,18.0,53,0.00,,,0.00,761,weatherlink.com 1.10,2013-02-27 19:30:00,
2013-02-27 11:45:00,59.4,43.0,30.34,North,5,9.0,11.0,54,0.00,,,0.00,707,weatherlink.com 1.10,2013-02-27 19:45:00,
2013-02-27 12:00:00,57.6,46.0,30.33,NNE,28,11.0,17.0,66,0.00,,,0.00,420,weatherlink.com 1.10,2013-02-27 20:00:00,
2013-02-27 12:15:00,57.3,48.0,30.32,NE,41,6.0,15.0,72,0.00,,,0.00,758,weatherlink.com 1.10,2013-02-27 20:15:00,
2013-02-27 12:30:00,59.7,48.0,30.33,North,360,0.0,7.0,66,0.00,,,0.00,751,weatherlink.com 1.10,2013-02-27 20:30:00,
2013-02-27 12:45:00,61.9,49.0,30.33,NW,325,1.0,9.0,64,0.00,,,0.00,751,weatherlink.com 1.10,2013-02-27 20:45:00,
2013-02-27 13:01:00,62.2,50.0,30.32,NNW,344,2.0,8.0,64,0.00,,,0.00,742,weatherlink.com 1.10,2013-02-27 21:01:00,
2013-02-27 13:16:00,62.3,49.0,30.32,WNW,289,5.0,7.0,63,0.00,,,0.00,733,weatherlink.com 1.10,2013-02-27 21:16:00,
2013-02-27 13:31:00,61.9,49.0,30.32,North,360,3.0,10.0,64,0.00,,,0.00,717,weatherlink.com 1.10,2013-02-27 21:31:00,
2013-02-27 13:46:00,62.0,50.0,30.32,NNE,16,4.0,12.0,64,0.00,,,0.00,693,weatherlink.com 1.10,2013-02-27 21:46:00,
2013-02-27 14:01:00,62.3,49.0,30.32,North,5,3.0,9.0,63,0.00,,,0.00,666,weatherlink.com 1.10,2013-02-27 22:01:00,
2013-02-27 14:16:00,62.0,50.0,30.32,North,349,4.0,9.0,64,0.00,,,0.00,642,weatherlink.com 1.10,2013-02-27 22:16:00,
2013-02-27 14:31:00,62.2,49.0,30.32,WNW,289,3.0,8.0,63,0.00,,,0.00,610,weatherlink.com 1.10,2013-02-27 22:31:00,
2013-02-27 14:46:00,62.5,50.0,30.32,North,355,0.0,6.0,63,0.00,,,0.00,577,weatherlink.com 1.10,2013-02-27 22:46:00,
2013-02-27 15:01:00,62.9,50.0,30.32,NE,46,7.0,8.0,62,0.00,,,0.00,540,weatherlink.com 1.10,2013-02-27 23:01:00,
2013-02-27 15:16:00,62.0,49.0,30.32,NNE,20,0.0,9.0,63,0.00,,,0.00,457,weatherlink.com 1.10,2013-02-27 23:16:00,
2013-02-27 15:31:00,61.6,50.0,30.33,NNE,28,1.0,6.0,65,0.00,,,0.00,455,weatherlink.com 1.10,2013-02-27 23:31:00,
2013-02-27 15:46:00,61.7,49.0,30.33,North,360,3.0,8.0,64,0.00,,,0.00,362,weatherlink.com 1.10,2013-02-27 23:46:00,
2013-02-27 16:01:00,61.6,50.0,30.33,North,360,0.0,5.0,65,0.00,,,0.00,353,weatherlink.com 1.10,2013-02-28 00:01:00,
2013-02-27 16:16:00,62.1,49.0,30.33,NNW,330,1.0,4.0,63,0.00,,,0.00,302,weatherlink.com 1.10,2013-02-28 00:16:00,
2013-02-27 16:31:00,61.5,49.0,30.33,WNW,286,0.0,7.0,64,0.00,,,0.00,246,weatherlink.com 1.10,2013-02-28 00:31:00,
2013-02-27 16:46:00,60.8,49.0,30.33,WNW,290,1.0,5.0,65,0.00,,,0.00,186,weatherlink.com 1.10,2013-02-28 00:46:00,
2013-02-27 17:01:00,60.0,49.0,30.34,West,281,2.0,5.0,67,0.00,,,0.00,130,weatherlink.com 1.10,2013-02-28 01:01:00,
2013-02-27 17:16:00,59.3,49.0,30.34,West,280,0.0,2.0,68,0.00,,,0.00,81,weatherlink.com 1.10,2013-02-28 01:16:00,
2013-02-27 17:31:00,58.6,48.0,30.34,West,280,0.0,4.0,68,0.00,,,0.00,42,weatherlink.com 1.10,2013-02-28 01:31:00,
2013-02-27 17:46:00,57.0,47.0,30.34,West,281,0.0,3.0,70,0.00,,,0.00,14,weatherlink.com 1.10,2013-02-28 01:46:00,
2013-02-27 18:01:00,55.4,46.0,30.35,West,280,0.0,0.0,72,0.00,,,0.00,0,weatherlink.com 1.10,2013-02-28 02:01:00,
2013-02-27 18:16:00,53.9,46.0,30.35,West,280,0.0,1.0,75,0.00,,,0.00,0,weatherlink.com 1.10,2013-02-28 02:16:00,
2013-02-27 18:31:00,52.5,45.0,30.35,West,281,0.0,1.0,77,0.00,,,0.00,0,weatherlink.com 1.10,2013-02-28 02:31:00,
2013-02-27 18:46:00,51.4,45.0,30.37,West,280,0.0,2.0,79,0.00,,,0.00,0,weatherlink.com 1.10,2013-02-28 02:46:00,
2013-02-27 19:01:00,50.5,45.0,30.37,West,281,0.0,0.0,81,0.00,,,0.00,0,weatherlink.com 1.10,2013-02-28 03:01:00,
2013-02-27 19:16:00,49.9,45.0,30.38,West,280,0.0,0.0,83,0.00,,,0.00,0,weatherlink.com 1.10,2013-02-28 03:16:00,
2013-02-27 19:31:00,49.6,45.0,30.38,West,280,0.0,0.0,85,0.00,,,0.00,0,weatherlink.com 1.10,2013-02-28 03:31:00,
2013-02-27 19:46:00,49.5,46.0,30.38,West,280,0.0,2.0,86,0.00,,,0.00,0,weatherlink.com 1.10,2013-02-28 03:46:00,
2013-02-27 20:01:00,49.4,45.0,30.38,West,280,0.0,3.0,86,0.00,,,0.00,0,weatherlink.com 1.10,2013-02-28 04:01:00,
2013-02-27 20:31:00,48.5,45.0,30.39,West,280,0.0,1.0,86,0.00,,,0.00,0,weatherlink.com 1.10,2013-02-28 04:31:00,
2013-02-27 20:46:00,48.2,44.0,30.40,West,280,0.0,1.0,86,0.00,,,0.00,0,weatherlink.com 1.10,2013-02-28 04:46:00,
2013-02-27 21:01:00,48.3,45.0,30.40,West,280,0.0,1.0,88,0.00,,,0.00,0,weatherlink.com 1.10,2013-02-28 05:01:00,
2013-02-27 21:16:00,48.4,45.0,30.40,West,280,0.0,1.0,87,0.00,,,0.00,0,weatherlink.com 1.10,2013-02-28 05:16:00,
2013-02-27 21:31:00,48.1,45.0,30.41,West,280,2.0,2.0,88,0.00,,,0.00,0,weatherlink.com 1.10,2013-02-28 05:31:00,
2013-02-27 21:46:00,47.9,45.0,30.41,NNW,345,2.0,6.0,89,0.00,,,0.00,0,weatherlink.com 1.10,2013-02-28 05:46:00,
2013-02-27 22:01:00,48.2,47.0,30.41,NNE,24,0.0,7.0,94,0.00,,,0.00,0,weatherlink.com 1.10,2013-02-28 06:01:00,
2013-02-27 22:16:00,48.2,46.0,30.41,NNE,24,1.0,5.0,90,0.00,,,0.00,0,weatherlink.com 1.10,2013-02-28 06:16:00,
2013-02-27 22:31:00,48.5,46.0,30.41,NNE,13,3.0,5.0,91,0.00,,,0.00,0,weatherlink.com 1.10,2013-02-28 06:31:00,
2013-02-27 22:46:00,48.8,47.0,30.41,NNE,16,0.0,2.0,92,0.00,,,0.00,0,weatherlink.com 1.10,2013-02-28 06:46:00,
2013-02-27 23:01:00,48.9,47.0,30.41,NNE,16,0.0,6.0,92,0.00,,,0.00,0,weatherlink.com 1.10,2013-02-28 07:01:00,
2013-02-27 23:16:00,48.8,47.0,30.41,NNE,16,0.0,1.0,92,0.00,,,0.00,0,weatherlink.com 1.10,2013-02-28 07:16:00,
2013-02-27 23:31:00,48.6,46.0,30.41,NNE,16,0.0,0.0,92,0.00,,,0.00,0,weatherlink.com 1.10,2013-02-28 07:31:00,
2013-02-27 23:46:00,48.5,46.0,30.41,NNE,16,0.0,0.0,92,0.00,,,0.00,0,weatherlink.com 1.10,2013-02-28 07:46:00,